sensor_id;sensor_type;location;lat;lon;timestamp;P1;durP1;ratioP1;P2;durP2;ratioP2
58260;SDS011;44058;52.898;6.502;2023-07-22T00:01:09;13.88;;;6.70;;
58260;SDS011;44058;52.898;6.502;2023-07-22T00:03:35;9.55;;;6.32;;
58260;SDS011;44058;52.898;6.502;2023-07-22T00:06:02;10.90;;;6.32;;
58260;SDS011;44058;52.898;6.502;2023-07-22T00:08:28;9.95;;;5.53;;
58260;SDS011;44058;52.898;6.502;2023-07-22T00:10:54;9.07;;;6.10;;
58260;SDS011;44058;52.898;6.502;2023-07-22T00:13:20;12.05;;;7.57;;
58260;SDS011;44058;52.898;6.502;2023-07-22T00:15:47;11.38;;;6.45;;
58260;SDS011;44058;52.898;6.502;2023-07-22T00:18:14;9.60;;;6.30;;
58260;SDS011;44058;52.898;6.502;2023-07-22T00:20:41;10.88;;;6.30;;
58260;SDS011;44058;52.898;6.502;2023-07-22T00:23:07;8.65;;;5.95;;
58260;SDS011;44058;52.898;6.502;2023-07-22T00:25:35;9.85;;;6.60;;
58260;SDS011;44058;52.898;6.502;2023-07-22T00:28:01;13.30;;;6.43;;
58260;SDS011;44058;52.898;6.502;2023-07-22T00:30:29;11.88;;;6.43;;
58260;SDS011;44058;52.898;6.502;2023-07-22T00:32:55;10.68;;;6.05;;
58260;SDS011;44058;52.898;6.502;2023-07-22T00:35:21;12.15;;;6.53;;
58260;SDS011;44058;52.898;6.502;2023-07-22T00:37:47;12.45;;;6.00;;
58260;SDS011;44058;52.898;6.502;2023-07-22T00:40:13;10.93;;;6.53;;
58260;SDS011;44058;52.898;6.502;2023-07-22T00:42:40;8.68;;;5.68;;
58260;SDS011;44058;52.898;6.502;2023-07-22T00:45:07;10.65;;;5.97;;
58260;SDS011;44058;52.898;6.502;2023-07-22T00:47:33;11.57;;;6.47;;
58260;SDS011;44058;52.898;6.502;2023-07-22T00:50:01;10.38;;;5.88;;
58260;SDS011;44058;52.898;6.502;2023-07-22T00:52:28;12.05;;;6.95;;
58260;SDS011;44058;52.898;6.502;2023-07-22T00:54:54;10.90;;;6.05;;
58260;SDS011;44058;52.898;6.502;2023-07-22T00:57:20;10.75;;;5.93;;
58260;SDS011;44058;52.898;6.502;2023-07-22T00:59:47;8.57;;;6.32;;
58260;SDS011;44058;52.898;6.502;2023-07-22T01:02:13;10.73;;;6.22;;
58260;SDS011;44058;52.898;6.502;2023-07-22T01:04:39;10.45;;;6.43;;
58260;SDS011;44058;52.898;6.502;2023-07-22T01:07:06;12.18;;;6.45;;
58260;SDS011;44058;52.898;6.502;2023-07-22T01:09:42;10.05;;;6.22;;
58260;SDS011;44058;52.898;6.502;2023-07-22T01:12:09;9.40;;;6.53;;
58260;SDS011;44058;52.898;6.502;2023-07-22T01:14:36;12.98;;;7.40;;
58260;SDS011;44058;52.898;6.502;2023-07-22T01:17:03;10.25;;;6.32;;
58260;SDS011;44058;52.898;6.502;2023-07-22T01:19:30;9.90;;;6.40;;
58260;SDS011;44058;52.898;6.502;2023-07-22T01:21:58;12.48;;;6.50;;
58260;SDS011;44058;52.898;6.502;2023-07-22T01:24:25;12.60;;;7.00;;
58260;SDS011;44058;52.898;6.502;2023-07-22T01:26:51;13.65;;;6.70;;
58260;SDS011;44058;52.898;6.502;2023-07-22T01:29:17;11.13;;;5.97;;
58260;SDS011;44058;52.898;6.502;2023-07-22T01:31:46;13.05;;;6.97;;
58260;SDS011;44058;52.898;6.502;2023-07-22T01:36:38;11.85;;;6.47;;
58260;SDS011;44058;52.898;6.502;2023-07-22T01:39:05;11.55;;;6.78;;
58260;SDS011;44058;52.898;6.502;2023-07-22T01:41:31;12.50;;;6.93;;
58260;SDS011;44058;52.898;6.502;2023-07-22T01:43:57;12.15;;;6.63;;
58260;SDS011;44058;52.898;6.502;2023-07-22T01:46:24;9.65;;;5.95;;
58260;SDS011;44058;52.898;6.502;2023-07-22T01:48:50;13.68;;;6.95;;
58260;SDS011;44058;52.898;6.502;2023-07-22T01:51:17;9.02;;;6.35;;
58260;SDS011;44058;52.898;6.502;2023-07-22T01:53:43;11.18;;;6.28;;
58260;SDS011;44058;52.898;6.502;2023-07-22T01:56:09;9.23;;;6.43;;
58260;SDS011;44058;52.898;6.502;2023-07-22T01:58:35;10.48;;;6.28;;
58260;SDS011;44058;52.898;6.502;2023-07-22T02:01:01;10.82;;;5.97;;
58260;SDS011;44058;52.898;6.502;2023-07-22T02:03:27;9.43;;;6.00;;
58260;SDS011;44058;52.898;6.502;2023-07-22T02:05:53;10.50;;;6.43;;
58260;SDS011;44058;52.898;6.502;2023-07-22T02:08:19;10.38;;;6.35;;
58260;SDS011;44058;52.898;6.502;2023-07-22T02:10:45;12.27;;;7.32;;
58260;SDS011;44058;52.898;6.502;2023-07-22T02:13:11;12.68;;;6.95;;
58260;SDS011;44058;52.898;6.502;2023-07-22T02:15:38;12.20;;;6.70;;
58260;SDS011;44058;52.898;6.502;2023-07-22T02:18:04;8.80;;;6.38;;
58260;SDS011;44058;52.898;6.502;2023-07-22T02:20:30;8.27;;;6.03;;
58260;SDS011;44058;52.898;6.502;2023-07-22T02:22:57;9.52;;;6.60;;
58260;SDS011;44058;52.898;6.502;2023-07-22T02:25:23;11.27;;;6.72;;
58260;SDS011;44058;52.898;6.502;2023-07-22T02:27:49;7.97;;;5.97;;
58260;SDS011;44058;52.898;6.502;2023-07-22T02:30:15;9.02;;;6.55;;
58260;SDS011;44058;52.898;6.502;2023-07-22T02:32:42;12.73;;;7.75;;
58260;SDS011;44058;52.898;6.502;2023-07-22T02:35:09;9.02;;;6.70;;
58260;SDS011;44058;52.898;6.502;2023-07-22T02:37:38;16.30;;;8.48;;
58260;SDS011;44058;52.898;6.502;2023-07-22T02:40:04;15.52;;;8.50;;
58260;SDS011;44058;52.898;6.502;2023-07-22T02:42:33;12.48;;;7.25;;
58260;SDS011;44058;52.898;6.502;2023-07-22T02:45:00;12.88;;;7.93;;
58260;SDS011;44058;52.898;6.502;2023-07-22T02:47:27;12.95;;;7.75;;
58260;SDS011;44058;52.898;6.502;2023-07-22T02:49:53;12.40;;;7.32;;
58260;SDS011;44058;52.898;6.502;2023-07-22T02:52:19;13.30;;;7.78;;
58260;SDS011;44058;52.898;6.502;2023-07-22T02:55:03;12.32;;;7.35;;
58260;SDS011;44058;52.898;6.502;2023-07-22T02:57:29;11.45;;;8.00;;
58260;SDS011;44058;52.898;6.502;2023-07-22T02:59:56;10.90;;;7.57;;
58260;SDS011;44058;52.898;6.502;2023-07-22T03:02:22;11.60;;;8.13;;
58260;SDS011;44058;52.898;6.502;2023-07-22T03:04:48;12.63;;;8.20;;
58260;SDS011;44058;52.898;6.502;2023-07-22T03:07:15;12.35;;;7.40;;
58260;SDS011;44058;52.898;6.502;2023-07-22T03:09:41;12.13;;;8.20;;
58260;SDS011;44058;52.898;6.502;2023-07-22T03:12:07;13.70;;;7.68;;
58260;SDS011;44058;52.898;6.502;2023-07-22T03:14:33;10.85;;;7.05;;
58260;SDS011;44058;52.898;6.502;2023-07-22T03:17:02;12.23;;;7.75;;
58260;SDS011;44058;52.898;6.502;2023-07-22T03:19:29;11.88;;;7.20;;
58260;SDS011;44058;52.898;6.502;2023-07-22T03:21:55;10.90;;;6.95;;
58260;SDS011;44058;52.898;6.502;2023-07-22T03:24:22;13.85;;;8.18;;
58260;SDS011;44058;52.898;6.502;2023-07-22T03:26:48;11.32;;;7.93;;
58260;SDS011;44058;52.898;6.502;2023-07-22T03:29:14;11.63;;;7.10;;
58260;SDS011;44058;52.898;6.502;2023-07-22T03:31:40;11.52;;;7.38;;
58260;SDS011;44058;52.898;6.502;2023-07-22T03:34:06;11.82;;;7.38;;
58260;SDS011;44058;52.898;6.502;2023-07-22T03:36:32;11.60;;;7.38;;
58260;SDS011;44058;52.898;6.502;2023-07-22T03:38:58;13.23;;;8.05;;
58260;SDS011;44058;52.898;6.502;2023-07-22T03:41:25;14.20;;;8.68;;
58260;SDS011;44058;52.898;6.502;2023-07-22T03:43:51;12.00;;;8.90;;
58260;SDS011;44058;52.898;6.502;2023-07-22T03:46:17;13.43;;;9.00;;
58260;SDS011;44058;52.898;6.502;2023-07-22T03:48:43;11.00;;;8.40;;
58260;SDS011;44058;52.898;6.502;2023-07-22T03:51:09;13.35;;;7.63;;
58260;SDS011;44058;52.898;6.502;2023-07-22T03:53:36;12.85;;;8.27;;
58260;SDS011;44058;52.898;6.502;2023-07-22T03:56:02;12.95;;;8.40;;
58260;SDS011;44058;52.898;6.502;2023-07-22T03:58:28;13.50;;;8.70;;
58260;SDS011;44058;52.898;6.502;2023-07-22T04:00:54;12.23;;;8.07;;
58260;SDS011;44058;52.898;6.502;2023-07-22T04:03:20;14.65;;;8.93;;
58260;SDS011;44058;52.898;6.502;2023-07-22T04:05:53;13.32;;;8.57;;
58260;SDS011;44058;52.898;6.502;2023-07-22T04:08:19;14.77;;;9.60;;
58260;SDS011;44058;52.898;6.502;2023-07-22T04:10:52;17.50;;;9.50;;
58260;SDS011;44058;52.898;6.502;2023-07-22T04:13:18;14.45;;;8.60;;
58260;SDS011;44058;52.898;6.502;2023-07-22T04:15:44;13.02;;;8.43;;
58260;SDS011;44058;52.898;6.502;2023-07-22T04:18:10;13.32;;;8.77;;
58260;SDS011;44058;52.898;6.502;2023-07-22T04:20:36;15.23;;;9.32;;
58260;SDS011;44058;52.898;6.502;2023-07-22T04:23:03;15.20;;;9.23;;
58260;SDS011;44058;52.898;6.502;2023-07-22T04:25:29;13.18;;;9.52;;
58260;SDS011;44058;52.898;6.502;2023-07-22T04:27:55;14.43;;;9.27;;
58260;SDS011;44058;52.898;6.502;2023-07-22T04:30:21;13.07;;;8.68;;
58260;SDS011;44058;52.898;6.502;2023-07-22T04:32:48;13.52;;;9.38;;
58260;SDS011;44058;52.898;6.502;2023-07-22T04:35:17;15.70;;;9.18;;
58260;SDS011;44058;52.898;6.502;2023-07-22T04:37:43;18.02;;;9.90;;
58260;SDS011;44058;52.898;6.502;2023-07-22T04:40:11;15.27;;;9.40;;
58260;SDS011;44058;52.898;6.502;2023-07-22T04:42:42;14.77;;;9.25;;
58260;SDS011;44058;52.898;6.502;2023-07-22T04:45:09;16.60;;;8.85;;
58260;SDS011;44058;52.898;6.502;2023-07-22T04:47:35;15.85;;;9.43;;
58260;SDS011;44058;52.898;6.502;2023-07-22T04:50:02;14.00;;;9.60;;
58260;SDS011;44058;52.898;6.502;2023-07-22T04:52:37;17.02;;;9.80;;
58260;SDS011;44058;52.898;6.502;2023-07-22T04:55:03;15.85;;;9.15;;
58260;SDS011;44058;52.898;6.502;2023-07-22T04:57:35;15.88;;;9.98;;
58260;SDS011;44058;52.898;6.502;2023-07-22T05:00:02;17.17;;;9.45;;
58260;SDS011;44058;52.898;6.502;2023-07-22T05:02:33;14.98;;;10.15;;
58260;SDS011;44058;52.898;6.502;2023-07-22T05:04:59;14.98;;;9.35;;
58260;SDS011;44058;52.898;6.502;2023-07-22T05:07:25;17.40;;;9.82;;
58260;SDS011;44058;52.898;6.502;2023-07-22T05:09:52;15.20;;;9.75;;
58260;SDS011;44058;52.898;6.502;2023-07-22T05:12:18;12.77;;;8.70;;
58260;SDS011;44058;52.898;6.502;2023-07-22T05:14:45;17.65;;;9.57;;
58260;SDS011;44058;52.898;6.502;2023-07-22T05:17:11;13.77;;;9.80;;
58260;SDS011;44058;52.898;6.502;2023-07-22T05:19:37;12.57;;;8.73;;
58260;SDS011;44058;52.898;6.502;2023-07-22T05:22:03;16.50;;;10.25;;
58260;SDS011;44058;52.898;6.502;2023-07-22T05:24:30;15.25;;;10.00;;
58260;SDS011;44058;52.898;6.502;2023-07-22T05:26:56;16.80;;;9.88;;
58260;SDS011;44058;52.898;6.502;2023-07-22T05:29:22;16.00;;;9.30;;
58260;SDS011;44058;52.898;6.502;2023-07-22T05:31:48;15.32;;;10.07;;
58260;SDS011;44058;52.898;6.502;2023-07-22T05:34:14;14.93;;;9.15;;
58260;SDS011;44058;52.898;6.502;2023-07-22T05:36:40;14.80;;;9.38;;
58260;SDS011;44058;52.898;6.502;2023-07-22T05:39:06;13.85;;;9.15;;
58260;SDS011;44058;52.898;6.502;2023-07-22T05:41:33;14.57;;;9.80;;
58260;SDS011;44058;52.898;6.502;2023-07-22T05:43:59;14.52;;;9.45;;
58260;SDS011;44058;52.898;6.502;2023-07-22T05:46:25;13.93;;;9.35;;
58260;SDS011;44058;52.898;6.502;2023-07-22T05:48:51;17.48;;;10.20;;
58260;SDS011;44058;52.898;6.502;2023-07-22T05:51:18;15.27;;;10.20;;
58260;SDS011;44058;52.898;6.502;2023-07-22T05:53:44;14.32;;;10.00;;
58260;SDS011;44058;52.898;6.502;2023-07-22T05:56:10;13.32;;;9.90;;
58260;SDS011;44058;52.898;6.502;2023-07-22T05:58:36;13.90;;;9.25;;
58260;SDS011;44058;52.898;6.502;2023-07-22T06:01:02;14.63;;;8.68;;
58260;SDS011;44058;52.898;6.502;2023-07-22T06:03:28;16.77;;;9.48;;
58260;SDS011;44058;52.898;6.502;2023-07-22T06:05:54;15.57;;;9.68;;
58260;SDS011;44058;52.898;6.502;2023-07-22T06:08:20;15.65;;;9.57;;
58260;SDS011;44058;52.898;6.502;2023-07-22T06:10:46;17.55;;;10.07;;
58260;SDS011;44058;52.898;6.502;2023-07-22T06:13:13;17.38;;;11.43;;
58260;SDS011;44058;52.898;6.502;2023-07-22T06:15:39;15.50;;;9.70;;
58260;SDS011;44058;52.898;6.502;2023-07-22T06:18:05;15.98;;;10.65;;
58260;SDS011;44058;52.898;6.502;2023-07-22T06:20:34;15.00;;;10.60;;
58260;SDS011;44058;52.898;6.502;2023-07-22T06:23:01;18.65;;;10.63;;
58260;SDS011;44058;52.898;6.502;2023-07-22T06:25:28;16.83;;;10.25;;
58260;SDS011;44058;52.898;6.502;2023-07-22T06:27:54;17.75;;;10.93;;
58260;SDS011;44058;52.898;6.502;2023-07-22T06:30:20;14.60;;;9.82;;
58260;SDS011;44058;52.898;6.502;2023-07-22T06:32:46;17.02;;;11.07;;
58260;SDS011;44058;52.898;6.502;2023-07-22T06:35:12;15.73;;;11.02;;
58260;SDS011;44058;52.898;6.502;2023-07-22T06:37:38;16.83;;;10.68;;
58260;SDS011;44058;52.898;6.502;2023-07-22T06:40:05;15.80;;;10.63;;
58260;SDS011;44058;52.898;6.502;2023-07-22T06:42:32;16.25;;;10.85;;
58260;SDS011;44058;52.898;6.502;2023-07-22T06:44:58;15.10;;;10.10;;
58260;SDS011;44058;52.898;6.502;2023-07-22T06:47:24;17.00;;;10.85;;
58260;SDS011;44058;52.898;6.502;2023-07-22T06:49:50;17.75;;;11.05;;
58260;SDS011;44058;52.898;6.502;2023-07-22T06:52:16;18.45;;;10.90;;
58260;SDS011;44058;52.898;6.502;2023-07-22T06:54:42;16.13;;;11.40;;
58260;SDS011;44058;52.898;6.502;2023-07-22T06:57:08;17.63;;;10.68;;
58260;SDS011;44058;52.898;6.502;2023-07-22T06:59:35;15.75;;;10.35;;
58260;SDS011;44058;52.898;6.502;2023-07-22T07:02:01;16.23;;;10.93;;
58260;SDS011;44058;52.898;6.502;2023-07-22T07:04:27;17.35;;;11.27;;
58260;SDS011;44058;52.898;6.502;2023-07-22T07:06:53;15.48;;;10.25;;
58260;SDS011;44058;52.898;6.502;2023-07-22T07:09:19;14.85;;;10.10;;
58260;SDS011;44058;52.898;6.502;2023-07-22T07:11:45;13.38;;;9.88;;
58260;SDS011;44058;52.898;6.502;2023-07-22T07:14:12;12.38;;;9.27;;
58260;SDS011;44058;52.898;6.502;2023-07-22T07:16:38;12.10;;;9.20;;
58260;SDS011;44058;52.898;6.502;2023-07-22T07:19:04;13.23;;;9.10;;
58260;SDS011;44058;52.898;6.502;2023-07-22T07:21:30;13.70;;;9.13;;
58260;SDS011;44058;52.898;6.502;2023-07-22T07:23:56;12.90;;;8.98;;
58260;SDS011;44058;52.898;6.502;2023-07-22T07:26:23;11.70;;;8.85;;
58260;SDS011;44058;52.898;6.502;2023-07-22T07:28:50;14.20;;;9.60;;
58260;SDS011;44058;52.898;6.502;2023-07-22T07:31:16;12.57;;;9.40;;
58260;SDS011;44058;52.898;6.502;2023-07-22T07:33:42;11.13;;;8.80;;
58260;SDS011;44058;52.898;6.502;2023-07-22T07:36:09;12.02;;;9.38;;
58260;SDS011;44058;52.898;6.502;2023-07-22T07:38:35;14.05;;;10.18;;
58260;SDS011;44058;52.898;6.502;2023-07-22T07:41:02;15.15;;;11.00;;
58260;SDS011;44058;52.898;6.502;2023-07-22T07:43:29;13.43;;;9.95;;
58260;SDS011;44058;52.898;6.502;2023-07-22T07:48:40;13.65;;;10.68;;
58260;SDS011;44058;52.898;6.502;2023-07-22T07:51:06;17.52;;;11.65;;
58260;SDS011;44058;52.898;6.502;2023-07-22T07:53:32;16.48;;;11.45;;
58260;SDS011;44058;52.898;6.502;2023-07-22T07:55:58;14.15;;;10.07;;
58260;SDS011;44058;52.898;6.502;2023-07-22T07:58:24;15.30;;;10.52;;
58260;SDS011;44058;52.898;6.502;2023-07-22T08:00:50;17.92;;;11.15;;
58260;SDS011;44058;52.898;6.502;2023-07-22T08:03:16;16.92;;;10.52;;
58260;SDS011;44058;52.898;6.502;2023-07-22T08:05:42;14.98;;;10.52;;
58260;SDS011;44058;52.898;6.502;2023-07-22T08:08:08;16.48;;;11.15;;
58260;SDS011;44058;52.898;6.502;2023-07-22T08:10:35;16.67;;;10.98;;
58260;SDS011;44058;52.898;6.502;2023-07-22T08:13:02;14.48;;;10.25;;
58260;SDS011;44058;52.898;6.502;2023-07-22T08:15:28;16.20;;;10.98;;
58260;SDS011;44058;52.898;6.502;2023-07-22T08:17:54;14.93;;;10.60;;
58260;SDS011;44058;52.898;6.502;2023-07-22T08:20:20;16.02;;;12.23;;
58260;SDS011;44058;52.898;6.502;2023-07-22T08:22:46;16.88;;;11.40;;
58260;SDS011;44058;52.898;6.502;2023-07-22T08:25:12;16.08;;;11.32;;
58260;SDS011;44058;52.898;6.502;2023-07-22T08:27:39;16.00;;;11.43;;
58260;SDS011;44058;52.898;6.502;2023-07-22T08:30:05;14.35;;;10.40;;
58260;SDS011;44058;52.898;6.502;2023-07-22T08:32:32;13.95;;;9.98;;
58260;SDS011;44058;52.898;6.502;2023-07-22T08:34:58;16.27;;;10.93;;
58260;SDS011;44058;52.898;6.502;2023-07-22T08:37:24;16.02;;;10.80;;
58260;SDS011;44058;52.898;6.502;2023-07-22T08:39:51;16.90;;;10.35;;
58260;SDS011;44058;52.898;6.502;2023-07-22T08:42:18;16.63;;;10.43;;
58260;SDS011;44058;52.898;6.502;2023-07-22T08:44:44;15.18;;;10.68;;
58260;SDS011;44058;52.898;6.502;2023-07-22T08:47:14;16.85;;;11.40;;
58260;SDS011;44058;52.898;6.502;2023-07-22T08:49:42;15.10;;;9.88;;
58260;SDS011;44058;52.898;6.502;2023-07-22T08:52:09;16.30;;;10.55;;
58260;SDS011;44058;52.898;6.502;2023-07-22T08:54:35;17.25;;;10.68;;
58260;SDS011;44058;52.898;6.502;2023-07-22T08:57:02;15.05;;;10.18;;
58260;SDS011;44058;52.898;6.502;2023-07-22T08:59:28;14.82;;;10.00;;
58260;SDS011;44058;52.898;6.502;2023-07-22T09:01:55;15.27;;;10.60;;
58260;SDS011;44058;52.898;6.502;2023-07-22T09:04:22;14.77;;;9.93;;
58260;SDS011;44058;52.898;6.502;2023-07-22T09:06:48;13.18;;;9.93;;
58260;SDS011;44058;52.898;6.502;2023-07-22T09:09:14;14.95;;;9.98;;
58260;SDS011;44058;52.898;6.502;2023-07-22T09:11:40;13.70;;;9.85;;
58260;SDS011;44058;52.898;6.502;2023-07-22T09:14:07;13.77;;;9.57;;
58260;SDS011;44058;52.898;6.502;2023-07-22T09:16:33;13.77;;;9.73;;
58260;SDS011;44058;52.898;6.502;2023-07-22T09:19:01;13.57;;;10.18;;
58260;SDS011;44058;52.898;6.502;2023-07-22T09:21:29;12.05;;;8.88;;
58260;SDS011;44058;52.898;6.502;2023-07-22T09:23:55;13.90;;;8.75;;
58260;SDS011;44058;52.898;6.502;2023-07-22T09:26:21;11.68;;;8.75;;
58260;SDS011;44058;52.898;6.502;2023-07-22T09:28:49;11.35;;;8.10;;
58260;SDS011;44058;52.898;6.502;2023-07-22T09:31:15;9.10;;;6.85;;
58260;SDS011;44058;52.898;6.502;2023-07-22T09:33:41;9.25;;;6.97;;
58260;SDS011;44058;52.898;6.502;2023-07-22T09:36:09;5.78;;;4.47;;
58260;SDS011;44058;52.898;6.502;2023-07-22T09:38:35;7.05;;;5.65;;
58260;SDS011;44058;52.898;6.502;2023-07-22T09:41:01;5.80;;;4.60;;
58260;SDS011;44058;52.898;6.502;2023-07-22T09:43:29;7.18;;;3.85;;
58260;SDS011;44058;52.898;6.502;2023-07-22T09:45:55;6.28;;;3.28;;
58260;SDS011;44058;52.898;6.502;2023-07-22T09:48:21;3.63;;;3.10;;
58260;SDS011;44058;52.898;6.502;2023-07-22T09:50:57;3.42;;;2.63;;
58260;SDS011;44058;52.898;6.502;2023-07-22T09:53:23;2.63;;;2.40;;
58260;SDS011;44058;52.898;6.502;2023-07-22T09:55:50;4.20;;;2.50;;
58260;SDS011;44058;52.898;6.502;2023-07-22T09:58:18;4.68;;;2.80;;
58260;SDS011;44058;52.898;6.502;2023-07-22T10:00:46;3.10;;;2.55;;
58260;SDS011;44058;52.898;6.502;2023-07-22T10:03:13;4.38;;;2.70;;
58260;SDS011;44058;52.898;6.502;2023-07-22T10:05:41;3.80;;;3.20;;
58260;SDS011;44058;52.898;6.502;2023-07-22T10:08:07;5.05;;;3.80;;
58260;SDS011;44058;52.898;6.502;2023-07-22T10:10:37;4.65;;;3.40;;
58260;SDS011;44058;52.898;6.502;2023-07-22T10:13:04;5.20;;;3.85;;
58260;SDS011;44058;52.898;6.502;2023-07-22T10:15:33;5.15;;;4.13;;
58260;SDS011;44058;52.898;6.502;2023-07-22T10:18:03;5.25;;;4.15;;
58260;SDS011;44058;52.898;6.502;2023-07-22T10:20:32;5.68;;;4.95;;
58260;SDS011;44058;52.898;6.502;2023-07-22T10:25:29;8.10;;;5.30;;
58260;SDS011;44058;52.898;6.502;2023-07-22T10:28:15;6.38;;;5.22;;
58260;SDS011;44058;52.898;6.502;2023-07-22T10:30:43;9.10;;;5.97;;
58260;SDS011;44058;52.898;6.502;2023-07-22T10:33:09;7.63;;;5.38;;
58260;SDS011;44058;52.898;6.502;2023-07-22T10:35:40;7.07;;;5.55;;
58260;SDS011;44058;52.898;6.502;2023-07-22T10:38:14;6.88;;;5.80;;
58260;SDS011;44058;52.898;6.502;2023-07-22T10:40:44;9.23;;;5.88;;
58260;SDS011;44058;52.898;6.502;2023-07-22T10:43:11;7.15;;;5.70;;
58260;SDS011;44058;52.898;6.502;2023-07-22T10:45:40;7.28;;;5.88;;
58260;SDS011;44058;52.898;6.502;2023-07-22T10:48:07;7.18;;;5.72;;
58260;SDS011;44058;52.898;6.502;2023-07-22T10:50:37;8.05;;;6.40;;
58260;SDS011;44058;52.898;6.502;2023-07-22T10:53:05;6.72;;;6.03;;
58260;SDS011;44058;52.898;6.502;2023-07-22T10:55:31;8.50;;;6.10;;
58260;SDS011;44058;52.898;6.502;2023-07-22T10:58:04;9.75;;;6.50;;
58260;SDS011;44058;52.898;6.502;2023-07-22T11:00:31;7.03;;;5.78;;
58260;SDS011;44058;52.898;6.502;2023-07-22T11:03:10;8.27;;;6.30;;
58260;SDS011;44058;52.898;6.502;2023-07-22T11:08:34;8.48;;;6.47;;
58260;SDS011;44058;52.898;6.502;2023-07-22T11:11:02;10.05;;;6.95;;
58260;SDS011;44058;52.898;6.502;2023-07-22T11:13:28;8.90;;;6.32;;
58260;SDS011;44058;52.898;6.502;2023-07-22T11:16:00;12.60;;;7.07;;
58260;SDS011;44058;52.898;6.502;2023-07-22T11:18:41;8.80;;;6.85;;
58260;SDS011;44058;52.898;6.502;2023-07-22T11:21:09;9.95;;;7.60;;
58260;SDS011;44058;52.898;6.502;2023-07-22T11:23:35;10.18;;;7.70;;
58260;SDS011;44058;52.898;6.502;2023-07-22T11:26:02;13.43;;;7.97;;
58260;SDS011;44058;52.898;6.502;2023-07-22T11:28:28;11.20;;;8.23;;
58260;SDS011;44058;52.898;6.502;2023-07-22T11:30:55;10.38;;;7.35;;
58260;SDS011;44058;52.898;6.502;2023-07-22T11:33:21;9.65;;;7.30;;
58260;SDS011;44058;52.898;6.502;2023-07-22T11:35:47;12.00;;;8.00;;
58260;SDS011;44058;52.898;6.502;2023-07-22T11:38:13;9.60;;;8.27;;
58260;SDS011;44058;52.898;6.502;2023-07-22T11:40:40;9.48;;;7.38;;
58260;SDS011;44058;52.898;6.502;2023-07-22T11:43:06;8.32;;;6.63;;
58260;SDS011;44058;52.898;6.502;2023-07-22T11:45:33;9.90;;;7.72;;
58260;SDS011;44058;52.898;6.502;2023-07-22T11:47:59;10.00;;;7.43;;
58260;SDS011;44058;52.898;6.502;2023-07-22T11:50:33;8.00;;;6.78;;
58260;SDS011;44058;52.898;6.502;2023-07-22T11:52:59;11.85;;;7.88;;
58260;SDS011;44058;52.898;6.502;2023-07-22T11:55:25;10.98;;;7.53;;
58260;SDS011;44058;52.898;6.502;2023-07-22T11:57:54;8.35;;;7.45;;
58260;SDS011;44058;52.898;6.502;2023-07-22T12:00:21;10.90;;;8.93;;
58260;SDS011;44058;52.898;6.502;2023-07-22T12:02:48;11.63;;;8.40;;
58260;SDS011;44058;52.898;6.502;2023-07-22T12:05:20;8.23;;;7.32;;
58260;SDS011;44058;52.898;6.502;2023-07-22T12:07:47;8.30;;;7.28;;
58260;SDS011;44058;52.898;6.502;2023-07-22T12:10:15;8.57;;;7.68;;
58260;SDS011;44058;52.898;6.502;2023-07-22T12:12:47;12.80;;;9.75;;
58260;SDS011;44058;52.898;6.502;2023-07-22T12:17:56;10.57;;;7.63;;
58260;SDS011;44058;52.898;6.502;2023-07-22T12:20:23;9.45;;;8.45;;
58260;SDS011;44058;52.898;6.502;2023-07-22T12:22:50;10.05;;;8.45;;
58260;SDS011;44058;52.898;6.502;2023-07-22T12:25:17;11.73;;;9.52;;
58260;SDS011;44058;52.898;6.502;2023-07-22T12:27:43;10.52;;;8.55;;
58260;SDS011;44058;52.898;6.502;2023-07-22T12:30:09;9.48;;;8.48;;
58260;SDS011;44058;52.898;6.502;2023-07-22T12:32:37;10.68;;;8.82;;
58260;SDS011;44058;52.898;6.502;2023-07-22T12:35:03;10.40;;;9.32;;
58260;SDS011;44058;52.898;6.502;2023-07-22T12:37:29;11.38;;;8.98;;
58260;SDS011;44058;52.898;6.502;2023-07-22T12:39:56;11.10;;;10.00;;
58260;SDS011;44058;52.898;6.502;2023-07-22T12:42:22;12.25;;;10.18;;
58260;SDS011;44058;52.898;6.502;2023-07-22T12:44:48;12.20;;;9.73;;
58260;SDS011;44058;52.898;6.502;2023-07-22T12:47:14;12.27;;;10.40;;
58260;SDS011;44058;52.898;6.502;2023-07-22T12:49:40;12.77;;;11.25;;
58260;SDS011;44058;52.898;6.502;2023-07-22T12:52:07;14.60;;;11.85;;
58260;SDS011;44058;52.898;6.502;2023-07-22T12:54:34;14.77;;;12.15;;
58260;SDS011;44058;52.898;6.502;2023-07-22T12:57:01;13.15;;;11.35;;
58260;SDS011;44058;52.898;6.502;2023-07-22T12:59:27;12.40;;;11.10;;
58260;SDS011;44058;52.898;6.502;2023-07-22T13:01:53;9.38;;;7.38;;
58260;SDS011;44058;52.898;6.502;2023-07-22T13:04:20;7.93;;;6.00;;
58260;SDS011;44058;52.898;6.502;2023-07-22T13:06:46;7.65;;;5.70;;
58260;SDS011;44058;52.898;6.502;2023-07-22T13:09:12;6.07;;;5.47;;
58260;SDS011;44058;52.898;6.502;2023-07-22T13:11:38;5.70;;;5.20;;
58260;SDS011;44058;52.898;6.502;2023-07-22T13:14:04;8.20;;;5.18;;
58260;SDS011;44058;52.898;6.502;2023-07-22T13:16:30;5.93;;;4.72;;
58260;SDS011;44058;52.898;6.502;2023-07-22T13:18:56;4.53;;;4.13;;
58260;SDS011;44058;52.898;6.502;2023-07-22T13:21:25;5.55;;;4.68;;
58260;SDS011;44058;52.898;6.502;2023-07-22T13:23:52;5.85;;;4.03;;
58260;SDS011;44058;52.898;6.502;2023-07-22T13:26:18;5.38;;;4.40;;
58260;SDS011;44058;52.898;6.502;2023-07-22T13:28:45;6.22;;;4.43;;
58260;SDS011;44058;52.898;6.502;2023-07-22T13:31:11;4.50;;;4.10;;
58260;SDS011;44058;52.898;6.502;2023-07-22T13:33:38;7.18;;;4.60;;
58260;SDS011;44058;52.898;6.502;2023-07-22T13:36:04;5.88;;;4.97;;
58260;SDS011;44058;52.898;6.502;2023-07-22T13:38:30;7.40;;;5.03;;
58260;SDS011;44058;52.898;6.502;2023-07-22T13:40:56;7.05;;;5.03;;
58260;SDS011;44058;52.898;6.502;2023-07-22T13:43:22;5.90;;;5.35;;
58260;SDS011;44058;52.898;6.502;2023-07-22T13:45:48;6.13;;;4.95;;
58260;SDS011;44058;52.898;6.502;2023-07-22T13:48:14;6.32;;;5.28;;
58260;SDS011;44058;52.898;6.502;2023-07-22T13:50:41;7.30;;;5.22;;
58260;SDS011;44058;52.898;6.502;2023-07-22T13:53:07;7.65;;;5.88;;
58260;SDS011;44058;52.898;6.502;2023-07-22T13:55:33;6.60;;;5.72;;
58260;SDS011;44058;52.898;6.502;2023-07-22T13:57:59;6.25;;;5.22;;
58260;SDS011;44058;52.898;6.502;2023-07-22T14:00:25;8.23;;;6.38;;
58260;SDS011;44058;52.898;6.502;2023-07-22T14:02:51;7.60;;;5.60;;
58260;SDS011;44058;52.898;6.502;2023-07-22T14:05:20;8.43;;;6.75;;
58260;SDS011;44058;52.898;6.502;2023-07-22T14:07:46;7.25;;;6.55;;
58260;SDS011;44058;52.898;6.502;2023-07-22T14:10:12;8.27;;;6.25;;
58260;SDS011;44058;52.898;6.502;2023-07-22T14:12:39;9.55;;;7.10;;
58260;SDS011;44058;52.898;6.502;2023-07-22T14:15:05;7.10;;;6.40;;
58260;SDS011;44058;52.898;6.502;2023-07-22T14:17:31;7.65;;;6.55;;
58260;SDS011;44058;52.898;6.502;2023-07-22T14:19:58;9.00;;;7.25;;
58260;SDS011;44058;52.898;6.502;2023-07-22T14:22:24;9.23;;;7.10;;
58260;SDS011;44058;52.898;6.502;2023-07-22T14:24:50;9.18;;;7.32;;
58260;SDS011;44058;52.898;6.502;2023-07-22T14:27:16;8.55;;;6.85;;
58260;SDS011;44058;52.898;6.502;2023-07-22T14:29:42;8.65;;;6.80;;
58260;SDS011;44058;52.898;6.502;2023-07-22T14:32:09;9.55;;;8.30;;
58260;SDS011;44058;52.898;6.502;2023-07-22T14:34:36;9.77;;;8.40;;
58260;SDS011;44058;52.898;6.502;2023-07-22T14:37:02;10.80;;;8.20;;
58260;SDS011;44058;52.898;6.502;2023-07-22T14:39:29;11.15;;;7.68;;
58260;SDS011;44058;52.898;6.502;2023-07-22T14:41:55;9.65;;;7.78;;
58260;SDS011;44058;52.898;6.502;2023-07-22T14:44:22;9.95;;;7.70;;
58260;SDS011;44058;52.898;6.502;2023-07-22T14:46:48;8.05;;;7.22;;